createdAt,value
2018-08-18T00:01:31.757Z,85.60
2018-08-18T00:04:04.905Z,85.50
2018-08-18T00:06:33.195Z,85.60
2018-08-18T00:09:01.458Z,86.80
2018-08-18T00:11:29.705Z,87.80
2018-08-18T00:13:57.960Z,89.10
2018-08-18T00:16:27.529Z,90.20
2018-08-18T00:19:00.915Z,90.70
2018-08-18T00:21:30.756Z,91.20
2018-08-18T00:24:06.711Z,91.40
2018-08-18T00:26:34.990Z,91.50
2018-08-18T00:29:03.495Z,91.30
2018-08-18T00:31:31.717Z,91.30
2018-08-18T00:33:59.961Z,91.10
2018-08-18T00:36:28.211Z,91.00
2018-08-18T00:38:58.613Z,91.00
2018-08-18T00:41:28.447Z,90.90
2018-08-18T00:43:57.436Z,90.80
2018-08-18T00:46:28.676Z,90.70
2018-08-18T00:48:57.121Z,90.70
2018-08-18T00:51:41.914Z,90.50
2018-08-18T00:54:10.221Z,90.50
2018-08-18T00:56:41.429Z,90.60
2018-08-18T00:59:09.918Z,90.70
2018-08-18T01:01:38.166Z,90.70
2018-08-18T01:04:07.832Z,90.70
2018-08-18T01:06:37.864Z,90.80
2018-08-18T01:09:09.365Z,90.80
2018-08-18T01:11:37.754Z,91.00
2018-08-18T01:14:12.549Z,91.30
2018-08-18T01:16:48.859Z,91.40
2018-08-18T01:19:17.862Z,91.40
2018-08-18T01:21:51.294Z,91.70
2018-08-18T01:24:20.324Z,91.70
2018-08-18T01:26:49.018Z,92.20
2018-08-18T01:29:17.922Z,92.30
2018-08-18T01:31:46.797Z,92.10
2018-08-18T01:34:15.031Z,92.30
2018-08-18T01:36:43.262Z,92.40
2018-08-18T01:39:13.246Z,92.50
2018-08-18T01:41:41.715Z,92.60
2018-08-18T01:44:11.796Z,92.70
2018-08-18T01:46:40.455Z,92.90
2018-08-18T01:49:29.968Z,93.00
2018-08-18T01:51:59.885Z,93.20
2018-08-18T01:54:28.401Z,93.80
2018-08-18T01:57:01.809Z,93.90
2018-08-18T01:59:30.265Z,94.20
2018-08-18T02:01:58.506Z,94.70
2018-08-18T02:04:26.750Z,95.00
2018-08-18T02:06:55.646Z,95.30
2018-08-18T02:09:23.881Z,95.50
2018-08-18T02:11:55.013Z,95.80
2018-08-18T02:14:23.220Z,95.90
2018-08-18T02:16:56.480Z,96.20
2018-08-18T02:19:24.689Z,96.40
2018-08-18T02:21:52.925Z,96.50
2018-08-18T02:24:21.134Z,96.70
2018-08-18T02:26:49.341Z,96.90
2018-08-18T02:29:17.565Z,97.10
2018-08-18T02:31:45.799Z,97.20
2018-08-18T02:34:14.093Z,97.50
2018-08-18T02:36:42.285Z,97.60
2018-08-18T02:39:10.519Z,97.50
2018-08-18T02:41:43.379Z,97.60
2018-08-18T02:44:11.598Z,97.60
2018-08-18T02:46:39.842Z,97.70
2018-08-18T02:49:08.066Z,97.90
2018-08-18T02:51:36.334Z,98.00
2018-08-18T02:54:04.520Z,98.10
2018-08-18T02:56:38.114Z,98.30
2018-08-18T02:59:08.006Z,98.40
2018-08-18T03:01:43.449Z,98.90
2018-08-18T03:04:12.928Z,99.20
2018-08-18T03:06:41.322Z,99.50
2018-08-18T03:09:10.837Z,99.90
2018-08-18T03:11:40.730Z,99.90
2018-08-18T03:14:09.291Z,99.90
2018-08-18T03:16:39.027Z,99.90
2018-08-18T03:19:07.261Z,99.90
2018-08-18T03:21:40.453Z,99.90
2018-08-18T03:24:24.102Z,99.90
2018-08-18T03:26:55.869Z,99.90
2018-08-18T03:29:25.307Z,99.90
2018-08-18T03:31:53.934Z,99.90
2018-08-18T03:34:22.153Z,99.90
2018-08-18T03:36:54.560Z,99.90
2018-08-18T03:39:29.271Z,99.90
2018-08-18T03:41:59.887Z,99.90
2018-08-18T03:44:28.107Z,99.90
2018-08-18T03:46:56.322Z,99.90
2018-08-18T03:49:24.556Z,99.90
2018-08-18T03:51:53.945Z,99.90
2018-08-18T03:54:22.292Z,99.90
2018-08-18T03:56:50.753Z,99.90
2018-08-18T03:59:19.066Z,99.90
2018-08-18T04:01:56.747Z,99.90
2018-08-18T04:04:25.997Z,99.90
2018-08-18T04:06:55.433Z,99.90
2018-08-18T04:09:24.858Z,99.90
2018-08-18T04:11:53.293Z,99.90
2018-08-18T04:14:28.485Z,99.90
2018-08-18T04:16:57.154Z,99.90
2018-08-18T04:19:25.409Z,99.90
2018-08-18T04:21:54.820Z,99.90
2018-08-18T04:24:25.153Z,99.90
2018-08-18T04:26:53.385Z,99.90
2018-08-18T04:29:22.031Z,99.90
2018-08-18T04:31:50.253Z,99.90
2018-08-18T04:34:18.483Z,99.90
2018-08-18T04:36:46.691Z,99.90
2018-08-18T04:39:14.989Z,99.90
2018-08-18T04:41:43.319Z,99.90
2018-08-18T04:44:11.738Z,99.90
2018-08-18T04:46:39.980Z,99.90
2018-08-18T04:49:08.201Z,99.90
2018-08-18T04:51:36.437Z,99.90
2018-08-18T04:54:04.762Z,99.90
2018-08-18T04:56:33.154Z,99.90
2018-08-18T04:59:01.379Z,99.90
2018-08-18T05:01:29.619Z,99.90
2018-08-18T05:04:05.378Z,99.90
2018-08-18T05:06:34.277Z,99.90
2018-08-18T05:09:04.679Z,99.90
2018-08-18T05:11:33.453Z,99.90
2018-08-18T05:14:01.662Z,99.90
2018-08-18T05:16:29.877Z,99.90
2018-08-18T05:18:58.142Z,99.90
2018-08-18T05:21:26.345Z,99.90
2018-08-18T05:23:54.581Z,99.90
2018-08-18T05:26:23.766Z,99.90
2018-08-18T05:28:51.986Z,99.90
2018-08-18T05:31:21.293Z,99.90
2018-08-18T05:33:49.800Z,99.90
2018-08-18T05:36:18.311Z,99.90
2018-08-18T05:38:46.517Z,99.90
2018-08-18T05:41:14.752Z,99.90
2018-08-18T05:43:43.132Z,99.90
2018-08-18T05:46:11.358Z,99.90
2018-08-18T05:48:39.762Z,99.90
2018-08-18T05:51:08.026Z,99.90
2018-08-18T05:53:36.229Z,99.90
2018-08-18T05:56:04.897Z,99.90
2018-08-18T05:58:51.025Z,99.90
2018-08-18T06:01:37.566Z,99.90
2018-08-18T06:04:11.493Z,99.90
2018-08-18T06:06:39.974Z,99.90
2018-08-18T06:09:10.139Z,99.90
2018-08-18T06:11:38.434Z,99.90
2018-08-18T06:14:07.702Z,99.90
2018-08-18T06:16:35.928Z,99.90
2018-08-18T06:19:04.127Z,99.90
2018-08-18T06:21:32.346Z,99.90
2018-08-18T06:24:00.593Z,99.90
2018-08-18T06:26:28.892Z,99.90
2018-08-18T06:28:57.523Z,99.90
2018-08-18T06:31:25.814Z,99.90
2018-08-18T06:33:54.095Z,99.90
2018-08-18T06:36:22.323Z,99.90
2018-08-18T06:38:50.586Z,99.90
2018-08-18T06:41:18.846Z,99.90
2018-08-18T06:43:47.062Z,99.50
2018-08-18T06:46:15.325Z,99.10
2018-08-18T06:48:43.538Z,98.50
2018-08-18T06:51:11.766Z,97.20
2018-08-18T06:53:45.879Z,96.80
2018-08-18T06:56:14.089Z,96.20
2018-08-18T06:58:42.329Z,95.30
2018-08-18T07:01:11.026Z,94.50
2018-08-18T07:03:46.890Z,94.40
2018-08-18T07:06:16.353Z,93.40
2018-08-18T07:08:49.870Z,92.80
2018-08-18T07:11:18.113Z,91.60
2018-08-18T07:13:46.985Z,91.00
2018-08-18T07:16:15.233Z,91.00
2018-08-18T07:18:43.442Z,91.00
2018-08-18T07:21:11.702Z,91.20
2018-08-18T07:23:39.975Z,91.30
2018-08-18T07:26:08.309Z,91.60
2018-08-18T07:28:36.630Z,91.20
2018-08-18T07:31:04.797Z,90.60
2018-08-18T07:33:33.043Z,89.60
2018-08-18T07:36:01.299Z,90.00
2018-08-18T07:38:29.575Z,90.00
2018-08-18T07:40:57.809Z,90.00
2018-08-18T07:43:31.070Z,89.70
2018-08-18T07:46:00.747Z,89.20
2018-08-18T07:48:29.014Z,88.40
2018-08-18T07:50:57.237Z,87.30
2018-08-18T07:53:25.514Z,86.60
2018-08-18T07:55:53.701Z,86.30
2018-08-18T07:58:23.050Z,86.30
2018-08-18T08:00:51.388Z,87.40
2018-08-18T08:03:20.340Z,86.20
2018-08-18T08:05:48.640Z,85.90
2018-08-18T08:08:16.784Z,84.60
2018-08-18T08:10:45.029Z,84.10
2018-08-18T08:13:14.090Z,83.80
2018-08-18T08:15:42.341Z,83.70
2018-08-18T08:18:12.062Z,83.40
2018-08-18T08:20:40.312Z,82.70
2018-08-18T08:23:08.603Z,81.00
2018-08-18T08:25:37.146Z,79.40
2018-08-18T08:28:05.406Z,79.60
2018-08-18T08:30:33.752Z,79.30
2018-08-18T08:33:02.021Z,80.70
2018-08-18T08:35:30.280Z,81.30
2018-08-18T08:37:58.537Z,82.80
2018-08-18T08:40:27.027Z,84.40
2018-08-18T08:42:55.348Z,85.40
2018-08-18T08:45:24.177Z,85.10
2018-08-18T08:47:52.429Z,85.80
2018-08-18T08:50:22.787Z,84.70
2018-08-18T08:52:52.403Z,84.40
2018-08-18T08:55:22.817Z,83.90
2018-08-18T08:57:51.052Z,83.40
2018-08-18T09:00:19.294Z,83.20
2018-08-18T09:02:47.571Z,82.90
2018-08-18T09:05:15.890Z,81.20
2018-08-18T09:07:44.097Z,80.70
2018-08-18T09:10:13.545Z,80.10
2018-08-18T09:12:41.893Z,79.50
2018-08-18T09:15:11.485Z,78.40
2018-08-18T09:17:39.769Z,78.60
2018-08-18T09:20:11.910Z,79.50
2018-08-18T09:23:01.922Z,78.30
2018-08-18T09:25:31.505Z,77.40
2018-08-18T09:28:02.147Z,77.50
2018-08-18T09:30:31.567Z,77.30
2018-08-18T09:33:06.236Z,76.60
2018-08-18T09:36:05.577Z,76.70
2018-08-18T09:38:33.791Z,77.70
2018-08-18T09:41:02.041Z,78.80
2018-08-18T09:43:30.472Z,79.60
2018-08-18T09:45:58.774Z,79.10
2018-08-18T09:48:27.173Z,78.30
2018-08-18T09:50:56.693Z,77.50
2018-08-18T09:53:24.970Z,77.20
2018-08-18T09:55:53.196Z,76.60
2018-08-18T09:58:21.549Z,76.10
2018-08-18T10:00:49.741Z,75.80
2018-08-18T10:03:17.970Z,74.90
2018-08-18T10:05:46.514Z,74.20
2018-08-18T10:08:14.842Z,73.50
2018-08-18T10:10:43.078Z,71.50
2018-08-18T10:13:11.488Z,69.70
2018-08-18T10:15:39.722Z,68.60
2018-08-18T10:18:07.949Z,67.90
2018-08-18T10:20:40.407Z,66.20
2018-08-18T10:23:10.033Z,65.20
2018-08-18T10:25:38.306Z,63.80
2018-08-18T10:28:06.907Z,62.40
2018-08-18T10:30:35.202Z,61.40
2018-08-18T10:33:04.146Z,61.20
2018-08-18T10:35:32.614Z,61.70
2018-08-18T10:38:02.414Z,61.00
2018-08-18T10:40:30.716Z,60.30
2018-08-18T10:42:58.963Z,59.20
2018-08-18T10:45:27.198Z,57.10
2018-08-18T10:47:55.469Z,56.20
2018-08-18T10:51:32.157Z,55.90
2018-08-18T10:54:01.609Z,55.40
2018-08-18T10:56:30.116Z,53.70
2018-08-18T10:59:11.796Z,51.90
2018-08-18T11:01:54.350Z,50.70
2018-08-18T11:04:22.569Z,48.90
2018-08-18T11:06:50.817Z,48.20
2018-08-18T11:09:19.011Z,48.60
2018-08-18T11:11:47.331Z,48.90
2018-08-18T11:14:15.601Z,48.30
2018-08-18T11:16:43.804Z,46.20
2018-08-18T11:19:12.025Z,43.20
2018-08-18T11:21:40.269Z,41.70
2018-08-18T11:24:08.495Z,42.10
2018-08-18T11:26:40.629Z,42.70
2018-08-18T11:29:11.954Z,42.40
2018-08-18T11:31:40.197Z,43.40
2018-08-18T11:34:08.446Z,44.20
2018-08-18T11:36:36.699Z,45.00
2018-08-18T11:39:07.901Z,44.50
2018-08-18T11:41:36.186Z,41.50
2018-08-18T11:44:04.383Z,39.20
2018-08-18T11:46:36.876Z,35.30
2018-08-18T11:49:05.087Z,31.90
2018-08-18T11:51:41.870Z,29.80
2018-08-18T11:54:10.171Z,28.50
2018-08-18T11:56:43.640Z,26.80
2018-08-18T11:59:15.052Z,25.70
2018-08-18T12:01:46.489Z,24.90
2018-08-18T12:05:49.085Z,24.80
2018-08-18T12:08:18.837Z,24.40
2018-08-18T12:10:48.022Z,22.90
2018-08-18T12:13:16.376Z,21.50
2018-08-18T12:15:58.050Z,20.30
2018-08-18T12:18:28.073Z,20.40
2018-08-18T12:20:57.779Z,20.20
2018-08-18T12:23:26.209Z,20.50
2018-08-18T12:26:03.626Z,20.20
2018-08-18T12:28:37.145Z,20.00
2018-08-18T12:31:06.653Z,20.30
2018-08-18T12:33:34.885Z,20.50
2018-08-18T12:36:03.157Z,20.70
2018-08-18T12:38:31.990Z,20.70
2018-08-18T12:41:00.280Z,20.60
2018-08-18T12:43:33.843Z,20.30
2018-08-18T12:46:02.692Z,20.10
2018-08-18T12:48:32.078Z,20.10
2018-08-18T12:51:00.285Z,20.00
2018-08-18T12:53:32.989Z,19.70
2018-08-18T12:56:01.862Z,19.30
2018-08-18T12:58:31.450Z,19.60
2018-08-18T13:00:59.621Z,19.50
2018-08-18T13:03:28.079Z,19.60
2018-08-18T13:05:56.333Z,19.60
2018-08-18T13:08:24.589Z,19.20
2018-08-18T13:10:54.464Z,19.20
2018-08-18T13:13:23.237Z,19.00
2018-08-18T13:15:53.249Z,18.70
2018-08-18T13:18:21.736Z,18.50
2018-08-18T13:20:51.161Z,18.20
2018-08-18T13:23:20.946Z,17.80
2018-08-18T13:25:49.440Z,17.70
2018-08-18T13:28:17.665Z,17.40
2018-08-18T13:30:45.919Z,17.20
2018-08-18T13:33:14.228Z,17.40
2018-08-18T13:35:42.383Z,17.50
2018-08-18T13:38:26.372Z,17.50
2018-08-18T13:40:54.934Z,17.30
2018-08-18T13:43:49.666Z,17.50
2018-08-18T13:46:18.874Z,17.40
2018-08-18T13:48:53.347Z,17.30
2018-08-18T13:51:22.951Z,16.90
2018-08-18T13:53:51.945Z,16.80
2018-08-18T13:56:21.005Z,16.90
2018-08-18T13:58:51.137Z,17.00
2018-08-18T14:01:37.714Z,16.40
2018-08-18T14:04:06.280Z,16.40
2018-08-18T14:06:40.381Z,16.20
2018-08-18T14:09:09.601Z,16.40
2018-08-18T14:11:38.004Z,16.60
2018-08-18T14:14:06.216Z,16.20
2018-08-18T14:16:34.486Z,16.10
2018-08-18T14:19:02.702Z,16.20
2018-08-18T14:21:30.965Z,16.10
2018-08-18T14:23:59.178Z,16.30
2018-08-18T14:26:27.380Z,16.10
2018-08-18T14:28:55.629Z,15.70
2018-08-18T14:31:23.876Z,15.60
2018-08-18T14:33:52.324Z,15.60
2018-08-18T14:36:22.876Z,15.60
2018-08-18T14:38:51.850Z,15.40
2018-08-18T14:41:50.715Z,15.10
2018-08-18T14:44:18.942Z,15.20
2018-08-18T14:46:47.234Z,14.90
2018-08-18T14:49:15.347Z,14.80
2018-08-18T14:51:43.555Z,14.70
2018-08-18T14:54:11.862Z,14.40
2018-08-18T14:56:39.978Z,14.10
2018-08-18T14:59:08.529Z,14.30
2018-08-18T15:01:36.763Z,14.70
2018-08-18T15:04:04.993Z,15.00
2018-08-18T15:06:33.215Z,15.00
2018-08-18T15:09:01.462Z,15.00
2018-08-18T15:11:29.654Z,15.00
2018-08-18T15:13:57.919Z,14.90
2018-08-18T15:16:26.158Z,15.00
2018-08-18T15:18:54.672Z,15.00
2018-08-18T15:21:22.897Z,14.90
2018-08-18T15:23:51.089Z,15.10
2018-08-18T15:26:19.307Z,15.20
2018-08-18T15:28:47.521Z,15.20
2018-08-18T15:31:15.750Z,15.10
2018-08-18T15:33:44.273Z,15.20
2018-08-18T15:36:25.727Z,15.10
2018-08-18T15:38:53.977Z,15.20
2018-08-18T15:41:24.128Z,15.70
2018-08-18T15:43:52.522Z,15.20
2018-08-18T15:46:21.751Z,15.20
2018-08-18T15:48:49.933Z,15.10
2018-08-18T15:51:18.144Z,15.30
2018-08-18T15:53:51.554Z,15.40
2018-08-18T15:56:20.741Z,15.50
2018-08-18T15:58:49.864Z,15.60
2018-08-18T16:01:18.849Z,15.40
2018-08-18T16:03:47.094Z,15.40
2018-08-18T16:06:15.311Z,15.50
2018-08-18T16:08:43.714Z,15.70
2018-08-18T16:11:12.051Z,15.90
2018-08-18T16:13:40.362Z,16.20
2018-08-18T16:16:08.561Z,16.50
2018-08-18T16:18:36.809Z,16.40
2018-08-18T16:21:12.112Z,16.90
2018-08-18T16:23:41.391Z,18.10
2018-08-18T16:26:10.425Z,20.10
2018-08-18T16:28:39.237Z,22.10
2018-08-18T16:31:07.583Z,23.40
2018-08-18T16:33:35.839Z,24.70
2018-08-18T16:36:04.071Z,25.80
2018-08-18T16:38:32.419Z,26.90
2018-08-18T16:41:00.655Z,27.80
2018-08-18T16:43:32.442Z,28.80
2018-08-18T16:46:16.234Z,29.80
2018-08-18T16:48:44.450Z,30.40
2018-08-18T16:51:12.661Z,31.50
2018-08-18T16:53:40.945Z,32.50
2018-08-18T16:56:19.331Z,33.60
2018-08-18T16:58:50.147Z,34.60
2018-08-18T17:01:18.779Z,35.20
2018-08-18T17:03:46.991Z,35.90
2018-08-18T17:06:15.230Z,36.20
2018-08-18T17:08:43.461Z,36.40
2018-08-18T17:11:11.681Z,36.90
2018-08-18T17:13:39.925Z,37.50
2018-08-18T17:16:08.167Z,37.60
2018-08-18T17:18:36.707Z,38.30
2018-08-18T17:21:05.989Z,38.90
2018-08-18T17:23:35.721Z,39.50
2018-08-18T17:26:03.997Z,39.80
2018-08-18T17:28:32.837Z,40.60
2018-08-18T17:31:02.970Z,41.30
2018-08-18T17:33:31.898Z,41.70
2018-08-18T17:36:00.276Z,42.40
2018-08-18T17:38:28.501Z,42.90
2018-08-18T17:40:56.725Z,43.30
2018-08-18T17:43:25.105Z,43.60
2018-08-18T17:45:58.579Z,43.90
2018-08-18T17:48:27.854Z,44.00
2018-08-18T17:50:56.681Z,44.20
2018-08-18T17:53:25.178Z,44.30
2018-08-18T17:56:07.731Z,44.50
2018-08-18T17:58:36.005Z,44.90
2018-08-18T18:01:05.949Z,45.20
2018-08-18T18:03:34.177Z,45.50
2018-08-18T18:06:02.748Z,45.50
2018-08-18T18:08:30.987Z,45.60
2018-08-18T18:11:00.656Z,45.90
2018-08-18T18:13:29.613Z,46.20
2018-08-18T18:15:57.910Z,46.20
2018-08-18T18:18:32.753Z,46.50
2018-08-18T18:21:00.987Z,46.70
2018-08-18T18:23:29.250Z,46.90
2018-08-18T18:25:57.485Z,47.00
2018-08-18T18:28:25.743Z,47.20
2018-08-18T18:30:54.404Z,47.40
2018-08-18T18:33:22.658Z,47.60
2018-08-18T18:35:51.169Z,47.90
2018-08-18T18:38:19.449Z,48.10
2018-08-18T18:40:47.661Z,48.30
2018-08-18T18:43:15.885Z,48.50
2018-08-18T18:45:44.211Z,48.80
2018-08-18T18:48:14.563Z,49.00
2018-08-18T18:50:45.601Z,49.20
2018-08-18T18:53:14.024Z,49.40
2018-08-18T18:55:47.621Z,49.40
2018-08-18T18:58:15.899Z,49.40
2018-08-18T19:00:48.747Z,49.40
2018-08-18T19:03:17.058Z,49.80
2018-08-18T19:05:47.758Z,50.00
2018-08-18T19:08:19.417Z,50.30
2018-08-18T19:10:47.725Z,50.20
2018-08-18T19:13:16.069Z,50.50
2018-08-18T19:15:44.291Z,50.60
2018-08-18T19:18:13.081Z,50.70
2018-08-18T19:20:41.335Z,51.40
2018-08-18T19:23:15.037Z,51.40
2018-08-18T19:25:44.510Z,51.70
2018-08-18T19:28:15.533Z,52.00
2018-08-18T19:30:43.762Z,52.20
2018-08-18T19:33:13.225Z,52.30
2018-08-18T19:35:42.814Z,52.50
2018-08-18T19:38:11.397Z,52.70
2018-08-18T19:40:41.069Z,52.90
2018-08-18T19:43:16.970Z,53.80
2018-08-18T19:45:45.350Z,53.90
2018-08-18T19:48:17.258Z,54.70
2018-08-18T19:50:51.574Z,54.60
2018-08-18T19:53:22.053Z,55.10
2018-08-18T19:55:50.589Z,55.10
2018-08-18T19:58:18.798Z,55.40
2018-08-18T20:00:46.982Z,55.60
2018-08-18T20:03:16.416Z,55.90
2018-08-18T20:05:44.638Z,56.70
2018-08-18T20:08:15.409Z,57.40
2018-08-18T20:10:49.060Z,57.90
2018-08-18T20:13:18.401Z,58.30
2018-08-18T20:15:48.229Z,58.60
2018-08-18T20:18:16.551Z,58.90
2018-08-18T20:20:44.802Z,59.30
2018-08-18T20:23:14.951Z,60.10
2018-08-18T20:25:43.229Z,62.10
2018-08-18T20:28:11.498Z,63.50
2018-08-18T20:30:39.700Z,65.70
2018-08-18T20:33:07.928Z,66.80
2018-08-18T20:35:36.158Z,67.20
2018-08-18T20:38:04.410Z,68.90
2018-08-18T20:40:32.661Z,70.00
2018-08-18T20:43:00.906Z,70.40
2018-08-18T20:45:34.545Z,70.10
2018-08-18T20:48:02.772Z,73.20
2018-08-18T20:50:31.228Z,74.40
2018-08-18T20:53:04.737Z,75.40
2018-08-18T20:55:33.846Z,76.60
2018-08-18T20:58:02.129Z,77.00
2018-08-18T21:00:30.322Z,77.60
2018-08-18T21:02:58.568Z,78.10
2018-08-18T21:05:26.789Z,79.00
2018-08-18T21:07:55.066Z,79.50
2018-08-18T21:10:23.315Z,80.10
2018-08-18T21:12:51.614Z,80.20
2018-08-18T21:15:19.862Z,80.30
2018-08-18T21:17:48.073Z,80.70
2018-08-18T21:20:17.884Z,81.10
2018-08-18T21:22:46.126Z,81.60
2018-08-18T21:25:14.938Z,82.50
2018-08-18T21:27:43.169Z,82.60
2018-08-18T21:30:13.434Z,82.60
2018-08-18T21:32:41.716Z,83.10
2018-08-18T21:35:09.941Z,83.20
2018-08-18T21:37:38.164Z,83.30
2018-08-18T21:40:07.729Z,83.80
2018-08-18T21:42:36.024Z,84.00
2018-08-18T21:45:05.537Z,84.30
2018-08-18T21:47:33.920Z,84.50
2018-08-18T21:50:02.171Z,85.00
2018-08-18T21:52:30.425Z,85.20
2018-08-18T21:54:58.713Z,85.40
2018-08-18T21:57:26.998Z,85.20
2018-08-18T21:59:59.396Z,85.50
2018-08-18T22:02:41.186Z,85.90
2018-08-18T22:05:11.175Z,86.40
2018-08-18T22:07:51.784Z,87.40
2018-08-18T22:10:20.258Z,88.00
2018-08-18T22:12:48.499Z,88.50
2018-08-18T22:15:17.589Z,89.10
2018-08-18T22:17:46.922Z,89.50
2018-08-18T22:20:16.013Z,90.10
2018-08-18T22:22:44.325Z,90.60
2018-08-18T22:25:12.889Z,90.70
2018-08-18T22:27:41.169Z,90.80
2018-08-18T22:30:11.766Z,90.90
2018-08-18T22:32:41.070Z,91.10
2018-08-18T22:35:10.241Z,91.40
2018-08-18T22:37:38.598Z,91.60
2018-08-18T22:40:07.573Z,92.00
2018-08-18T22:42:35.810Z,92.60
2018-08-18T22:45:15.311Z,92.80
2018-08-18T22:47:44.437Z,92.90
2018-08-18T22:50:13.030Z,93.00
2018-08-18T22:52:43.487Z,93.10
2018-08-18T22:55:11.734Z,93.10
2018-08-18T22:57:41.936Z,93.20
2018-08-18T23:00:10.243Z,93.20
2018-08-18T23:02:38.504Z,93.40
2018-08-18T23:05:06.812Z,93.40
2018-08-18T23:07:35.078Z,93.60
2018-08-18T23:10:03.542Z,93.60
2018-08-18T23:12:31.717Z,93.70
2018-08-18T23:14:59.998Z,93.70
2018-08-18T23:17:28.194Z,93.80
2018-08-18T23:19:56.443Z,94.00
2018-08-18T23:22:40.178Z,94.50
2018-08-18T23:25:08.413Z,94.40
2018-08-18T23:27:36.648Z,94.50
2018-08-18T23:30:05.789Z,94.60
2018-08-18T23:32:34.043Z,94.70
2018-08-18T23:35:02.309Z,94.70
2018-08-18T23:37:30.530Z,94.70
2018-08-18T23:39:58.845Z,95.00
2018-08-18T23:42:27.686Z,95.10
2018-08-18T23:44:55.941Z,95.30
2018-08-18T23:47:24.167Z,95.20
2018-08-18T23:49:52.440Z,95.30
2018-08-18T23:52:20.661Z,95.30
2018-08-18T23:54:48.926Z,95.40
2018-08-18T23:57:17.986Z,95.40
2018-08-18T23:59:46.690Z,95.60
